Time;durP1;ratioP1;P1;durP2;ratioP2;P2;SDS_P1;SDS_P2;PMS_P1;PMS_P2;Temp;Humidity;BMP_temperature;BMP_pressure;BME280_temperature;BME280_humidity;BME280_pressure;Samples;Min_cycle;Max_cycle;Signal;HPM_P1;HPM_P2
2020/12/30 00:00:39;;;;;;;28.70;15.67;;;4.20;93.10;;;;;;5013535;28;20036;-66
2020/12/30 00:03:05;;;;;;;30.20;14.97;;;4.10;93.00;;;;;;5011828;28;20511;-66
2020/12/30 00:05:30;;;;;;;32.57;16.20;;;4.20;93.10;;;;;;5013481;28;20041;-66
2020/12/30 00:07:56;;;;;;;32.20;16.80;;;4.20;93.10;;;;;;5014020;28;20038;-66
2020/12/30 00:10:23;;;;;;;32.17;17.20;;;4.20;93.10;;;;;;5013650;28;20057;-66
2020/12/30 00:12:49;;;;;;;33.07;17.17;;;4.20;93.10;;;;;;5012242;28;20041;-66
2020/12/30 00:15:15;;;;;;;32.50;17.63;;;4.20;93.20;;;;;;5013286;28;20050;-67
2020/12/30 00:17:42;;;;;;;33.67;17.77;;;4.30;93.20;;;;;;5013448;28;20092;-66
2020/12/30 00:20:09;;;;;;;34.60;18.00;;;4.30;93.20;;;;;;5013783;28;20045;-66
2020/12/30 00:22:36;;;;;;;35.90;18.70;;;4.30;93.20;;;;;;5013191;28;20069;-67
2020/12/30 00:25:03;;;;;;;36.47;19.07;;;4.30;93.20;;;;;;5013305;28;20038;-66
2020/12/30 00:27:29;;;;;;;35.57;18.63;;;4.30;93.40;;;;;;5012134;28;20044;-66
2020/12/30 00:29:54;;;;;;;36.97;18.93;;;4.30;93.20;;;;;;5012575;28;20042;-66
2020/12/30 00:32:20;;;;;;;34.97;19.37;;;4.30;93.20;;;;;;5013089;28;20049;-66
2020/12/30 00:34:46;;;;;;;36.93;19.93;;;4.30;93.20;;;;;;5011683;28;20165;-67
2020/12/30 00:37:12;;;;;;;36.60;19.63;;;4.40;93.20;;;;;;5012443;28;20057;-66
2020/12/30 00:39:38;;;;;;;36.97;20.17;;;4.40;93.20;;;;;;5013296;28;20036;-67
2020/12/30 00:42:04;;;;;;;39.40;20.97;;;4.40;93.20;;;;;;5013233;28;20038;-66
2020/12/30 00:44:31;;;;;;;37.90;20.50;;;4.40;93.20;;;;;;5011799;28;20038;-66
2020/12/30 00:46:57;;;;;;;40.53;22.57;;;4.40;93.30;;;;;;5011769;28;20065;-66
2020/12/30 00:49:25;;;;;;;43.10;21.23;;;4.40;93.20;;;;;;5013293;28;20042;-66
2020/12/30 00:51:56;;;;;;;42.10;22.17;;;4.40;93.20;;;;;;5011339;28;20038;-66
2020/12/30 00:54:25;;;;;;;42.97;22.27;;;4.40;93.20;;;;;;5011661;28;20073;-66
2020/12/30 00:56:52;;;;;;;42.87;22.97;;;4.40;93.30;;;;;;5011713;28;20062;-67
2020/12/30 00:59:20;;;;;;;45.23;24.77;;;4.40;93.30;;;;;;5013451;28;20034;-66
2020/12/30 01:01:51;;;;;;;45.90;24.47;;;4.40;93.30;;;;;;5011543;28;20042;-66
2020/12/30 01:04:28;;;;;;;44.57;24.23;;;4.50;93.30;;;;;;4996441;28;20469;-66
2020/12/30 01:06:54;;;;;;;45.67;24.07;;;4.50;93.30;;;;;;5011639;28;20128;-66
2020/12/30 01:09:21;;;;;;;46.93;25.20;;;4.50;93.30;;;;;;5012849;28;20112;-67
2020/12/30 01:11:47;;;;;;;47.57;25.13;;;4.50;93.40;;;;;;5012761;28;20052;-65
2020/12/30 01:14:13;;;;;;;49.77;25.67;;;4.50;93.30;;;;;;5012165;28;20054;-67
2020/12/30 01:16:39;;;;;;;48.30;25.60;;;4.50;93.30;;;;;;5012919;28;20062;-66
2020/12/30 01:19:06;;;;;;;50.53;24.30;;;4.50;93.30;;;;;;5012904;28;20072;-64
2020/12/30 01:21:39;;;;;;;50.00;25.60;;;4.50;93.30;;;;;;5010995;28;20065;-66
2020/12/30 01:24:04;;;;;;;46.43;24.43;;;4.50;93.50;;;;;;4995204;28;20038;-65
2020/12/30 01:26:30;;;;;;;50.10;25.83;;;4.50;93.30;;;;;;5012511;28;20392;-66
2020/12/30 01:28:56;;;;;;;47.97;25.07;;;4.50;93.30;;;;;;5012170;28;20101;-66
2020/12/30 01:31:29;;;;;;;48.57;26.67;;;4.50;93.30;;;;;;5012696;28;20045;-66
2020/12/30 01:33:55;;;;;;;50.93;26.03;;;4.50;93.30;;;;;;5011871;28;20038;-66
2020/12/30 01:36:21;;;;;;;51.33;26.63;;;4.50;93.30;;;;;;5011075;28;20561;-66
2020/12/30 01:38:48;;;;;;;47.10;25.50;;;4.50;93.30;;;;;;5011891;28;20038;-66
2020/12/30 01:41:14;;;;;;;49.50;26.10;;;4.60;93.30;;;;;;5011728;28;20033;-69
2020/12/30 01:43:40;;;;;;;47.70;26.60;;;4.60;93.20;;;;;;5012389;28;20546;-70
2020/12/30 01:46:06;;;;;;;50.03;26.43;;;4.50;93.30;;;;;;5011877;28;20165;-69
2020/12/30 01:48:34;;;;;;;48.43;26.13;;;4.60;93.30;;;;;;5012545;28;20029;-70
2020/12/30 01:51:00;;;;;;;51.80;27.33;;;4.60;93.30;;;;;;5012037;28;20038;-69
2020/12/30 01:53:26;;;;;;;48.07;25.33;;;4.60;93.30;;;;;;5010752;28;20069;-70
2020/12/30 01:55:54;;;;;;;50.40;25.73;;;4.60;93.30;;;;;;5011890;28;20034;-69
2020/12/30 01:58:19;;;;;;;46.27;26.30;;;4.60;93.20;;;;;;5012034;28;20413;-69
2020/12/30 02:00:48;;;;;;;47.07;25.67;;;4.60;93.30;;;;;;5012438;28;20033;-69
2020/12/30 02:03:15;;;;;;;49.87;26.67;;;4.60;93.20;;;;;;5011459;28;20121;-69
2020/12/30 02:05:42;;;;;;;47.33;25.83;;;4.60;93.20;;;;;;5010555;28;20058;-69
2020/12/30 02:08:09;;;;;;;46.87;26.33;;;4.60;93.20;;;;;;5012055;28;20487;-69
2020/12/30 02:10:35;;;;;;;48.57;26.00;;;4.60;93.20;;;;;;5011761;28;20458;-69
2020/12/30 02:13:01;;;;;;;47.03;25.00;;;4.60;93.20;;;;;;5011217;28;20118;-69
2020/12/30 02:15:31;;;;;;;47.33;25.63;;;4.60;93.10;;;;;;5011035;28;20053;-69
2020/12/30 02:17:58;;;;;;;51.35;27.05;;;4.60;93.30;;;;;;5011977;28;20044;-69
2020/12/30 02:20:24;;;;;;;46.20;26.00;;;4.60;93.20;;;;;;5011576;28;20557;-69
2020/12/30 02:23:00;;;;;;;49.90;27.43;;;4.60;93.10;;;;;;5011617;28;20045;-69
2020/12/30 02:25:26;;;;;;;48.57;25.87;;;4.60;93.10;;;;;;5011180;28;20045;-69
2020/12/30 02:27:51;;;;;;;45.83;25.83;;;4.60;93.10;;;;;;5010468;28;20128;-69
2020/12/30 02:30:19;;;;;;;50.00;26.83;;;4.60;93.10;;;;;;5010491;28;20030;-69
2020/12/30 02:32:46;;;;;;;45.77;25.37;;;4.60;93.10;;;;;;5010676;28;20076;-69
2020/12/30 02:35:12;;;;;;;46.53;25.60;;;4.60;93.10;;;;;;5011222;28;20518;-69
2020/12/30 02:37:38;;;;;;;53.63;27.53;;;4.60;93.10;;;;;;5011510;28;20095;-70
2020/12/30 02:40:05;;;;;;;52.00;27.93;;;4.70;93.10;;;;;;5011179;28;20041;-69
2020/12/30 02:42:31;;;;;;;45.73;24.97;;;4.60;93.00;;;;;;5009666;28;20034;-69
2020/12/30 02:45:03;;;;;;;45.10;25.37;;;4.70;93.10;;;;;;5010830;28;20045;-69
2020/12/30 02:47:28;;;;;;;43.57;25.60;;;4.60;93.00;;;;;;5011564;28;20033;-69
2020/12/30 02:49:54;;;;;;;46.70;23.10;;;4.60;93.00;;;;;;5010823;28;20103;-69
2020/12/30 02:52:20;;;;;;;46.50;24.47;;;4.60;93.10;;;;;;5009802;28;20172;-70
2020/12/30 02:54:46;;;;;;;42.77;24.50;;;4.60;93.00;;;;;;5011023;28;20046;-70
2020/12/30 02:57:11;;;;;;;44.40;24.33;;;4.60;93.00;;;;;;5010973;28;20514;-69
2020/12/30 02:59:37;;;;;;;41.37;24.17;;;4.60;93.00;;;;;;5011468;28;20054;-70
2020/12/30 03:02:03;;;;;;;45.43;25.30;;;4.60;92.90;;;;;;5009341;28;20064;-69
2020/12/30 03:04:28;;;;;;;43.30;24.53;;;4.60;93.00;;;;;;5009712;28;20042;-70
2020/12/30 03:06:54;;;;;;;44.83;25.03;;;4.60;92.90;;;;;;5009882;28;20044;-70
2020/12/30 03:09:20;;;;;;;39.50;22.20;;;4.60;92.80;;;;;;5009742;28;20553;-69
2020/12/30 03:11:48;;;;;;;40.33;22.57;;;4.60;92.80;;;;;;5011063;28;20124;-70
2020/12/30 03:14:14;;;;;;;41.70;22.67;;;4.60;92.60;;;;;;5010235;28;20477;-69
2020/12/30 03:16:40;;;;;;;38.50;22.03;;;4.60;92.70;;;;;;5011435;28;20041;-69
2020/12/30 03:19:06;;;;;;;42.27;23.00;;;4.50;92.80;;;;;;5009831;28;20045;-69
2020/12/30 03:21:31;;;;;;;38.60;22.67;;;4.50;92.90;;;;;;5009396;28;20450;-69
2020/12/30 03:23:57;;;;;;;41.50;23.00;;;4.50;92.80;;;;;;5011481;28;20103;-69
2020/12/30 03:26:24;;;;;;;41.30;22.90;;;4.50;92.70;;;;;;5014313;28;20446;-70
2020/12/30 03:28:49;;;;;;;40.00;22.90;;;4.50;92.70;;;;;;5014945;28;20491;-70
2020/12/30 03:31:15;;;;;;;40.77;23.90;;;4.40;92.60;;;;;;5015095;28;20055;-69
2020/12/30 03:33:41;;;;;;;41.93;23.70;;;4.40;92.60;;;;;;5014249;28;20061;-69
2020/12/30 03:36:07;;;;;;;41.30;23.90;;;4.40;92.60;;;;;;5014644;28;20034;-69
2020/12/30 03:38:33;;;;;;;40.03;22.30;;;4.40;92.70;;;;;;5014958;28;20034;-69
2020/12/30 03:40:58;;;;;;;42.57;24.47;;;4.40;92.80;;;;;;5011793;28;20080;-69
2020/12/30 03:43:24;;;;;;;38.90;22.97;;;4.40;92.80;;;;;;5012841;28;20065;-69
2020/12/30 03:45:50;;;;;;;41.43;22.80;;;4.40;92.80;;;;;;5014123;28;20482;-69
2020/12/30 03:48:15;;;;;;;37.60;21.40;;;4.50;92.80;;;;;;5014478;28;20038;-69
2020/12/30 03:50:41;;;;;;;39.83;21.90;;;4.50;92.80;;;;;;5014774;28;20034;-70
2020/12/30 03:53:07;;;;;;;40.37;22.40;;;4.50;92.80;;;;;;5013950;28;20056;-69
2020/12/30 03:55:32;;;;;;;37.57;20.93;;;4.50;92.80;;;;;;5012864;28;20487;-69
2020/12/30 03:57:58;;;;;;;37.67;21.40;;;4.50;92.70;;;;;;5012690;28;20078;-69
2020/12/30 04:00:24;;;;;;;39.60;21.93;;;4.50;92.70;;;;;;5014614;28;20490;-69
2020/12/30 04:02:49;;;;;;;36.20;21.23;;;4.50;92.60;;;;;;5012923;28;20045;-69
2020/12/30 04:05:15;;;;;;;36.07;20.27;;;4.50;92.60;;;;;;5013598;28;20099;-69
2020/12/30 04:07:41;;;;;;;35.63;19.33;;;4.50;92.50;;;;;;5014335;28;20042;-69
2020/12/30 04:10:07;;;;;;;35.80;20.63;;;4.50;92.50;;;;;;5013972;28;20068;-69
2020/12/30 04:12:32;;;;;;;34.80;19.90;;;4.50;92.50;;;;;;5013948;28;20034;-70
2020/12/30 04:14:58;;;;;;;34.20;19.97;;;4.50;92.50;;;;;;5013600;28;20073;-70
2020/12/30 04:17:24;;;;;;;33.67;19.60;;;4.50;92.60;;;;;;5013884;28;20780;-69
2020/12/30 04:19:49;;;;;;;35.57;19.90;;;4.50;92.50;;;;;;5013950;28;20062;-70
2020/12/30 04:22:15;;;;;;;35.33;20.00;;;4.50;92.50;;;;;;5013366;28;20046;-69
2020/12/30 04:24:41;;;;;;;35.43;21.03;;;4.50;92.40;;;;;;5013882;28;20057;-70
2020/12/30 04:27:07;;;;;;;38.30;20.97;;;4.50;92.50;;;;;;5012525;28;20069;-69
2020/12/30 04:29:32;;;;;;;33.57;19.83;;;4.50;92.40;;;;;;5013409;28;20052;-69
2020/12/30 04:31:58;;;;;;;36.93;21.30;;;4.50;92.40;;;;;;5013477;28;20038;-69
2020/12/30 04:34:24;;;;;;;38.43;21.83;;;4.50;92.40;;;;;;5012659;28;20038;-69
2020/12/30 04:36:50;;;;;;;37.53;21.03;;;4.50;92.40;;;;;;5011945;28;20060;-69
2020/12/30 04:39:15;;;;;;;34.60;19.33;;;4.50;92.40;;;;;;5013586;28;20046;-69
2020/12/30 04:41:45;;;;;;;37.17;21.13;;;4.50;92.40;;;;;;5012878;28;20042;-69
2020/12/30 04:44:14;;;;;;;35.33;19.93;;;4.50;92.40;;;;;;5012005;28;20498;-69
2020/12/30 04:46:42;;;;;;;38.90;19.33;;;4.50;92.40;;;;;;5013024;28;20034;-69
2020/12/30 04:49:09;;;;;;;38.67;20.60;;;4.50;92.40;;;;;;5013658;28;20447;-69
2020/12/30 04:51:36;;;;;;;37.53;20.97;;;4.50;92.30;;;;;;5013295;28;20901;-70
2020/12/30 04:54:02;;;;;;;38.07;20.73;;;4.60;92.40;;;;;;5012681;28;20575;-69
2020/12/30 04:56:40;;;;;;;36.37;21.57;;;4.60;92.30;;;;;;5011490;28;20129;-69
2020/12/30 04:59:11;;;;;;;38.10;20.67;;;4.50;92.50;;;;;;5011736;28;20042;-70
2020/12/30 05:01:50;;;;;;;38.60;22.17;;;4.60;92.30;;;;;;5013373;28;20076;-69
2020/12/30 05:04:19;;;;;;;39.77;21.93;;;4.60;92.30;;;;;;5012807;28;20168;-69
2020/12/30 05:06:49;;;;;;;40.10;22.07;;;4.60;92.30;;;;;;5013393;28;20026;-69
2020/12/30 05:09:19;;;;;;;41.60;23.07;;;4.60;92.20;;;;;;5011295;28;20045;-69
2020/12/30 05:11:45;;;;;;;42.08;22.45;;;4.60;92.50;;;;;;5012824;28;20041;-69
2020/12/30 05:14:11;;;;;;;38.50;22.40;;;4.60;92.20;;;;;;5011063;28;20046;-68
2020/12/30 05:16:36;;;;;;;38.37;21.63;;;4.60;92.20;;;;;;5011628;28;20037;-69
2020/12/30 05:19:05;;;;;;;38.87;22.47;;;4.60;92.20;;;;;;5012570;28;20045;-69
2020/12/30 05:21:31;;;;;;;38.33;20.07;;;4.60;92.20;;;;;;5013123;28;20360;-69
2020/12/30 05:23:58;;;;;;;36.20;20.57;;;4.60;92.20;;;;;;5012684;28;20122;-69
2020/12/30 05:26:24;;;;;;;37.30;21.80;;;4.60;92.20;;;;;;5012204;28;20498;-69
2020/12/30 05:28:52;;;;;;;35.17;19.87;;;4.60;92.20;;;;;;5011207;28;20042;-69
2020/12/30 05:31:18;;;;;;;39.70;21.77;;;4.60;92.20;;;;;;5011562;28;20034;-70
2020/12/30 05:33:44;;;;;;;35.90;20.50;;;4.60;92.10;;;;;;5010794;28;20041;-69
2020/12/30 05:36:10;;;;;;;37.63;22.40;;;4.60;92.10;;;;;;5012419;28;20042;-69
2020/12/30 05:38:35;;;;;;;40.17;22.63;;;4.60;92.10;;;;;;5012253;28;20049;-69
2020/12/30 05:41:01;;;;;;;37.57;21.00;;;4.60;92.10;;;;;;5011307;28;20129;-69
2020/12/30 05:43:27;;;;;;;38.27;21.73;;;4.60;92.10;;;;;;5010924;28;20069;-70
2020/12/30 05:45:54;;;;;;;41.87;23.00;;;4.60;92.00;;;;;;5011664;28;20431;-69
2020/12/30 05:48:21;;;;;;;38.63;21.63;;;4.60;92.00;;;;;;5011797;28;20037;-70
2020/12/30 05:50:57;;;;;;;38.53;22.67;;;4.60;92.00;;;;;;5010951;28;20034;-69
2020/12/30 05:53:24;;;;;;;40.93;22.30;;;4.60;92.00;;;;;;5012022;28;20065;-69
2020/12/30 05:55:52;;;;;;;37.30;21.00;;;4.60;92.00;;;;;;5011831;28;20485;-69
2020/12/30 05:58:18;;;;;;;37.03;22.30;;;4.60;92.10;;;;;;5012095;28;20057;-69
2020/12/30 06:00:45;;;;;;;36.80;21.13;;;4.60;92.00;;;;;;5012381;28;20040;-69
2020/12/30 06:03:15;;;;;;;37.23;21.07;;;4.60;92.00;;;;;;5011310;28;20395;-69
2020/12/30 06:05:41;;;;;;;34.97;20.48;;;4.60;91.90;;;;;;5010781;28;20036;-69
2020/12/30 06:08:07;;;;;;;38.23;21.13;;;4.60;92.20;;;;;;5011652;28;21558;-69
2020/12/30 06:10:33;;;;;;;33.90;20.87;;;4.60;91.90;;;;;;5012090;28;20455;-69
2020/12/30 06:13:03;;;;;;;35.60;20.77;;;4.60;91.90;;;;;;5011258;28;20064;-69
2020/12/30 06:15:31;;;;;;;36.67;20.88;;;4.60;91.90;;;;;;5011728;28;20107;-69
2020/12/30 06:17:56;;;;;;;37.30;19.83;;;4.60;91.90;;;;;;5010884;28;20041;-69
2020/12/30 06:20:32;;;;;;;34.17;20.40;;;4.60;91.80;;;;;;5011605;28;20056;-69
2020/12/30 06:23:10;;;;;;;36.07;20.23;;;4.50;91.70;;;;;;5010270;28;20054;-69
2020/12/30 06:25:38;;;;;;;33.97;19.80;;;4.50;91.80;;;;;;5009739;28;20060;-70
2020/12/30 06:28:07;;;;;;;35.53;20.57;;;4.60;91.90;;;;;;5011678;28;20042;-69
2020/12/30 06:30:33;;;;;;;33.83;19.77;;;4.50;91.90;;;;;;5009913;28;20029;-69
2020/12/30 06:33:04;;;;;;;36.73;19.67;;;4.50;91.90;;;;;;5011339;28;20030;-69
2020/12/30 06:35:32;;;;;;;32.53;17.80;;;4.50;91.80;;;;;;5010507;28;20406;-69
2020/12/30 06:38:00;;;;;;;30.73;18.40;;;4.50;91.90;;;;;;5011569;28;20037;-70
2020/12/30 06:40:32;;;;;;;32.17;18.77;;;4.60;91.80;;;;;;5010974;28;20092;-69
2020/12/30 06:42:59;;;;;;;33.73;18.93;;;4.60;91.80;;;;;;5010622;28;20042;-69
2020/12/30 06:45:42;;;;;;;30.17;18.17;;;4.60;91.70;;;;;;5011000;28;20037;-69
2020/12/30 06:48:09;;;;;;;29.70;17.40;;;4.60;91.70;;;;;;5011233;28;20469;-70
2020/12/30 06:50:35;;;;;;;33.30;17.90;;;4.60;91.70;;;;;;5010002;28;20045;-69
2020/12/30 06:53:22;;;;;;;32.20;18.40;;;4.60;91.60;;;;;;5010446;28;20470;-69
2020/12/30 06:55:48;;;;;;;29.03;17.00;;;4.60;91.60;;;;;;5010809;28;20519;-69
2020/12/30 06:58:51;;;;;;;32.47;19.30;;;4.60;91.60;;;;;;5010866;28;20045;-69
2020/12/30 07:01:17;;;;;;;31.27;17.73;;;4.60;91.60;;;;;;5010715;28;20100;-69
2020/12/30 07:03:44;;;;;;;32.13;18.67;;;4.60;91.50;;;;;;5010957;28;20030;-69
2020/12/30 07:06:26;;;;;;;32.60;18.83;;;4.60;91.60;;;;;;5009854;28;20488;-69
2020/12/30 07:08:54;;;;;;;31.10;19.00;;;4.60;91.50;;;;;;5004494;28;20623;-69
2020/12/30 07:11:47;;;;;;;29.30;17.77;;;4.60;91.50;;;;;;5010565;28;20125;-70
2020/12/30 07:14:14;;;;;;;32.50;18.10;;;4.50;91.40;;;;;;5039398;28;20104;-69
2020/12/30 07:16:41;;;;;;;33.33;19.23;;;4.50;91.40;;;;;;5011058;28;20395;-70
2020/12/30 07:19:34;;;;;;;32.83;18.83;;;4.50;91.40;;;;;;5010712;28;20027;-69
2020/12/30 07:22:01;;;;;;;32.13;19.03;;;4.50;91.40;;;;;;5008714;28;20045;-69
2020/12/30 07:24:46;;;;;;;34.30;20.13;;;4.50;91.30;;;;;;5010136;28;21581;-69
2020/12/30 07:27:14;;;;;;;33.43;18.80;;;4.50;91.30;;;;;;5009910;28;20390;-69
2020/12/30 07:29:42;;;;;;;31.63;18.67;;;4.50;91.30;;;;;;5010892;28;20030;-71
2020/12/30 07:32:09;;;;;;;32.60;18.83;;;4.50;91.30;;;;;;5010029;28;20133;-69
2020/12/30 07:34:39;;;;;;;29.93;18.60;;;4.50;91.30;;;;;;5010448;28;20072;-69
2020/12/30 07:37:05;;;;;;;34.45;19.58;;;4.50;91.30;;;;;;5009995;28;20046;-70
2020/12/30 07:39:40;;;;;;;33.37;19.23;;;4.50;91.50;;;;;;5010387;28;20033;-69
2020/12/30 07:42:12;;;;;;;37.17;20.13;;;4.50;91.20;;;;;;5010275;28;20133;-70
2020/12/30 07:44:44;;;;;;;33.07;20.30;;;4.50;91.20;;;;;;5003026;28;20127;-70
2020/12/30 07:47:10;;;;;;;34.73;20.47;;;4.50;91.20;;;;;;5008571;28;20391;-70
2020/12/30 07:49:36;;;;;;;35.00;20.53;;;4.50;91.40;;;;;;5010494;28;20509;-70
2020/12/30 07:52:03;;;;;;;38.50;19.73;;;4.50;91.20;;;;;;5010040;28;20121;-70
2020/12/30 07:54:30;;;;;;;33.80;19.80;;;4.50;91.20;;;;;;5009637;28;20038;-70
2020/12/30 07:57:06;;;;;;;32.57;18.83;;;4.50;91.20;;;;;;5010135;28;20041;-71
2020/12/30 07:59:33;;;;;;;33.63;19.67;;;4.60;91.20;;;;;;5009942;28;20123;-70
2020/12/30 08:02:11;;;;;;;32.53;19.90;;;4.60;91.10;;;;;;5010000;28;20057;-71
2020/12/30 08:04:38;;;;;;;32.13;19.43;;;4.60;91.10;;;;;;5007641;28;20153;-70
2020/12/30 08:07:06;;;;;;;32.77;19.37;;;4.50;91.20;;;;;;5008934;28;20121;-71
2020/12/30 08:09:33;;;;;;;33.23;19.23;;;4.60;91.20;;;;;;4992239;28;20498;-70
2020/12/30 08:12:08;;;;;;;32.67;18.53;;;4.60;91.20;;;;;;5011965;28;20187;-70
2020/12/30 08:14:36;;;;;;;35.90;19.10;;;4.60;91.10;;;;;;5010920;28;20062;-71
2020/12/30 08:17:07;;;;;;;30.30;18.77;;;4.60;91.00;;;;;;5013109;28;20116;-70
2020/12/30 08:19:34;;;;;;;33.35;18.60;;;4.60;91.00;;;;;;5012512;28;20530;-71
2020/12/30 08:22:04;;;;;;;32.80;19.37;;;4.60;91.10;;;;;;5011605;28;20510;-72
2020/12/30 08:24:31;;;;;;;31.33;18.70;;;4.60;91.10;;;;;;5012401;28;20056;-71
2020/12/30 08:26:58;;;;;;;32.73;19.30;;;4.60;91.20;;;;;;5011032;28;20048;-70
2020/12/30 08:29:35;;;;;;;34.67;18.53;;;4.60;91.00;;;;;;5012657;28;20069;-71
2020/12/30 08:32:17;;;;;;;31.83;18.43;;;4.60;91.00;;;;;;5011835;28;20113;-70
2020/12/30 08:34:52;;;;;;;32.37;18.73;;;4.60;91.00;;;;;;5013112;28;20045;-71
2020/12/30 08:37:33;;;;;;;33.20;19.23;;;4.60;91.00;;;;;;5012607;28;20042;-70
2020/12/30 08:40:17;;;;;;;30.83;18.50;;;4.70;91.10;;;;;;5012898;28;20034;-70
2020/12/30 08:42:55;;;;;;;36.27;18.73;;;4.70;91.00;;;;;;5012804;28;20053;-70
2020/12/30 08:45:30;;;;;;;33.97;18.83;;;4.70;90.90;;;;;;5012359;28;20041;-71
2020/12/30 08:48:13;;;;;;;30.80;17.80;;;4.70;90.90;;;;;;5010649;28;20049;-70
2020/12/30 08:50:39;;;;;;;30.00;17.90;;;4.70;90.80;;;;;;5012118;28;20033;-70
2020/12/30 08:53:05;;;;;;;29.07;17.73;;;4.70;91.00;;;;;;5012862;28;20042;-70
2020/12/30 08:55:31;;;;;;;31.57;18.40;;;4.70;90.70;;;;;;5012374;28;20545;-70
2020/12/30 08:57:58;;;;;;;37.60;19.30;;;4.70;90.70;;;;;;5013110;28;20046;-70
2020/12/30 09:00:25;;;;;;;34.40;18.90;;;4.70;90.80;;;;;;5012725;28;20057;-70
2020/12/30 09:02:53;;;;;;;30.30;19.17;;;4.70;90.80;;;;;;5011114;28;20042;-70
2020/12/30 09:05:32;;;;;;;32.30;19.47;;;4.70;90.80;;;;;;5012032;28;20034;-70
2020/12/30 09:08:14;;;;;;;35.13;19.33;;;4.70;90.70;;;;;;5010530;28;20529;-70
2020/12/30 09:10:41;;;;;;;37.57;19.57;;;4.70;90.70;;;;;;5010758;28;20076;-69
2020/12/30 09:13:20;;;;;;;38.47;20.80;;;4.70;90.90;;;;;;5010790;28;20073;-69
2020/12/30 09:15:54;;;;;;;36.07;20.53;;;4.70;90.60;;;;;;5011423;28;20457;-69
2020/12/30 09:18:23;;;;;;;35.40;20.60;;;4.70;90.60;;;;;;5009408;28;20044;-71
2020/12/30 09:20:49;;;;;;;38.30;20.63;;;4.70;90.60;;;;;;5011338;28;20065;-69
2020/12/30 09:23:16;;;;;;;39.70;21.00;;;4.70;90.60;;;;;;5011145;28;20485;-71
2020/12/30 09:25:42;;;;;;;35.83;19.37;;;4.70;90.80;;;;;;5011932;28;20038;-70
2020/12/30 09:28:19;;;;;;;35.67;20.07;;;4.60;90.50;;;;;;5011524;28;20041;-69
2020/12/30 09:30:46;;;;;;;35.17;19.53;;;4.60;90.50;;;;;;5012380;28;20038;-70
2020/12/30 09:33:19;;;;;;;36.40;19.87;;;4.60;90.50;;;;;;5008651;28;20034;-70
2020/12/30 09:35:46;;;;;;;34.87;20.37;;;4.60;90.50;;;;;;5011589;28;20037;-70
2020/12/30 09:38:18;;;;;;;37.93;21.47;;;4.50;90.60;;;;;;5010123;28;20041;-70
2020/12/30 09:40:46;;;;;;;35.77;19.27;;;4.50;90.50;;;;;;5012060;28;20040;-69
2020/12/30 09:43:15;;;;;;;35.80;20.80;;;4.50;90.50;;;;;;5008468;28;20475;-70
2020/12/30 09:45:41;;;;;;;34.20;20.17;;;4.50;90.60;;;;;;5011607;28;20038;-70
2020/12/30 09:48:14;;;;;;;37.40;20.23;;;4.50;90.60;;;;;;5011673;28;20037;-70
2020/12/30 09:50:43;;;;;;;35.07;20.60;;;4.50;90.50;;;;;;5011670;28;20044;-70
2020/12/30 09:53:10;;;;;;;36.07;20.47;;;4.60;90.60;;;;;;5011013;28;20069;-70
2020/12/30 09:55:35;;;;;;;39.13;20.67;;;4.60;90.60;;;;;;5009772;28;20030;-70
2020/12/30 09:58:01;;;;;;;40.10;21.87;;;4.60;90.40;;;;;;5045336;28;20401;-71
2020/12/30 10:00:27;;;;;;;37.77;21.30;;;4.60;90.40;;;;;;5009986;28;20061;-70
2020/12/30 10:02:54;;;;;;;35.50;19.73;;;4.50;90.30;;;;;;5010906;28;20535;-71
2020/12/30 10:05:19;;;;;;;36.43;20.07;;;4.50;90.30;;;;;;5011033;28;20034;-70
2020/12/30 10:07:45;;;;;;;36.77;20.70;;;4.50;90.40;;;;;;5041597;28;20041;-71
2020/12/30 10:10:11;;;;;;;36.00;18.53;;;4.50;90.40;;;;;;5011705;28;20042;-71
2020/12/30 10:12:40;;;;;;;36.13;19.90;;;4.50;90.40;;;;;;5009214;28;20045;-71
2020/12/30 10:15:11;;;;;;;38.07;20.40;;;4.50;90.40;;;;;;4991241;28;20435;-71
2020/12/30 10:17:37;;;;;;;;;;;4.40;90.50;;;;;;5010926;28;20046;-71
2020/12/30 10:20:07;;;;;;;38.67;19.73;;;4.50;90.60;;;;;;5006921;28;19916;-71
2020/12/30 10:22:33;;;;;;;36.92;19.08;;;4.50;90.70;;;;;;5005559;28;20042;-71
2020/12/30 10:25:00;;;;;;;33.50;19.03;;;4.60;90.60;;;;;;5008613;28;20073;-71
2020/12/30 10:27:26;;;;;;;33.97;20.07;;;4.70;90.60;;;;;;5008554;28;20069;-71
2020/12/30 10:29:52;;;;;;;35.47;20.27;;;4.70;90.50;;;;;;4990760;28;20083;-71
2020/12/30 10:32:18;;;;;;;34.47;19.33;;;4.70;90.50;;;;;;5014948;28;20034;-71
2020/12/30 10:34:44;;;;;;;37.23;19.57;;;4.80;90.50;;;;;;5029648;28;20123;-72
2020/12/30 10:37:09;;;;;;;34.63;18.27;;;4.80;90.30;;;;;;5016094;28;20458;-70
2020/12/30 10:39:36;;;;;;;35.33;18.40;;;4.70;90.30;;;;;;5009270;28;20113;-70
2020/12/30 10:42:03;;;;;;;33.70;18.63;;;4.80;90.30;;;;;;5009194;28;20084;-70
2020/12/30 10:44:29;;;;;;;31.87;18.33;;;4.80;90.30;;;;;;5008956;28;20442;-70
2020/12/30 10:46:56;;;;;;;32.67;19.17;;;4.70;90.30;;;;;;5010809;28;20530;-70
2020/12/30 10:49:24;;;;;;;30.00;18.03;;;4.70;90.30;;;;;;5010961;28;20064;-70
2020/12/30 10:51:50;;;;;;;33.93;18.40;;;4.80;90.40;;;;;;5010837;28;20058;-70
2020/12/30 10:54:17;;;;;;;31.83;18.80;;;4.80;90.20;;;;;;5009973;28;20050;-70
2020/12/30 10:56:47;;;;;;;32.80;18.30;;;4.80;90.20;;;;;;5010794;28;20030;-70
2020/12/30 10:59:13;;;;;;;33.20;18.97;;;4.70;90.20;;;;;;5000612;28;20042;-70
2020/12/30 11:01:39;;;;;;;32.87;18.70;;;4.70;90.30;;;;;;5028839;28;20036;-71
2020/12/30 11:04:04;;;;;;;34.17;19.00;;;4.70;90.40;;;;;;5030335;28;20041;-70
2020/12/30 11:06:30;;;;;;;32.97;17.73;;;4.80;90.30;;;;;;5012701;28;20411;-71
2020/12/30 11:08:56;;;;;;;34.57;17.87;;;4.80;90.10;;;;;;5021776;28;20044;-70
2020/12/30 11:11:21;;;;;;;34.13;18.70;;;4.80;90.20;;;;;;5010640;28;20038;-70
2020/12/30 11:13:47;;;;;;;31.00;17.67;;;4.70;90.20;;;;;;4991609;28;20046;-71
2020/12/30 11:16:13;;;;;;;30.93;17.77;;;4.70;90.30;;;;;;5008873;28;20084;-72
2020/12/30 11:18:38;;;;;;;31.63;18.07;;;4.70;90.30;;;;;;5010106;28;20630;-70
2020/12/30 11:21:04;;;;;;;32.03;18.60;;;4.70;90.30;;;;;;5010090;28;20034;-70
2020/12/30 11:23:30;;;;;;;31.80;17.57;;;4.70;90.40;;;;;;5007418;28;20074;-72
2020/12/30 11:25:55;;;;;;;30.40;16.87;;;4.80;90.50;;;;;;5009091;28;20046;-71
2020/12/30 11:28:21;;;;;;;29.63;16.90;;;4.80;90.40;;;;;;5010981;28;20419;-70
2020/12/30 11:30:47;;;;;;;31.73;17.13;;;4.90;90.30;;;;;;5009618;28;20041;-70
2020/12/30 11:33:13;;;;;;;31.53;16.93;;;4.90;90.30;;;;;;5010165;28;20041;-71
2020/12/30 11:35:39;;;;;;;30.07;17.33;;;4.90;90.50;;;;;;5010332;28;20048;-70
2020/12/30 11:38:05;;;;;;;27.93;16.50;;;5.00;90.70;;;;;;5010427;28;20038;-70
2020/12/30 11:40:32;;;;;;;28.43;15.63;;;5.30;90.80;;;;;;5010787;28;20042;-71
2020/12/30 11:42:58;;;;;;;27.83;16.20;;;5.40;90.40;;;;;;5008369;28;20061;-70
2020/12/30 11:45:24;;;;;;;28.13;16.17;;;5.50;90.30;;;;;;5043212;28;20169;-70
2020/12/30 11:47:50;;;;;;;29.37;16.43;;;5.60;89.90;;;;;;5013371;28;20046;-71
2020/12/30 11:50:16;;;;;;;28.80;16.83;;;5.50;89.20;;;;;;4996564;28;20104;-70
2020/12/30 11:52:43;;;;;;;30.83;16.83;;;5.40;89.60;;;;;;5012511;28;20048;-71
2020/12/30 11:55:09;;;;;;;29.37;16.37;;;5.40;89.70;;;;;;5011037;28;20123;-71
2020/12/30 11:57:35;;;;;;;30.63;16.40;;;5.40;89.30;;;;;;5011894;28;20602;-71
2020/12/30 12:00:05;;;;;;;30.10;16.83;;;5.40;89.20;;;;;;5011868;28;20121;-71
2020/12/30 12:02:32;;;;;;;;;;;5.30;89.40;;;;;;5045010;28;20033;-70
2020/12/30 12:04:59;;;;;;;27.83;16.43;;;5.30;89.50;;;;;;5013255;28;19917;-71
2020/12/30 12:07:24;;;;;;;31.67;18.03;;;5.30;89.80;;;;;;5013498;28;20038;-71
2020/12/30 12:09:50;;;;;;;30.20;17.47;;;5.20;89.50;;;;;;4995875;28;20030;-71
2020/12/30 12:12:16;;;;;;;30.40;17.53;;;5.20;89.70;;;;;;5012278;28;20053;-72
2020/12/30 12:14:42;;;;;;;31.17;17.60;;;5.20;90.00;;;;;;5011533;28;20042;-70
2020/12/30 12:17:08;;;;;;;34.27;18.73;;;5.20;89.30;;;;;;5013976;28;20030;-70
2020/12/30 12:19:34;;;;;;;33.80;17.53;;;5.20;89.30;;;;;;4996471;28;20364;-71
2020/12/30 12:21:59;;;;;;;29.47;17.47;;;5.20;89.60;;;;;;5011292;28;20041;-71
2020/12/30 12:24:25;;;;;;;31.90;18.20;;;5.20;89.50;;;;;;4995948;28;20113;-71
2020/12/30 12:26:51;;;;;;;30.20;17.47;;;5.20;89.50;;;;;;5012158;28;20103;-70
2020/12/30 12:29:41;;;;;;;31.93;18.23;;;5.10;89.50;;;;;;5013772;28;20084;-71
2020/12/30 12:32:12;;;;;;;32.00;18.60;;;5.10;89.70;;;;;;5005516;28;20115;-71
2020/12/30 12:34:42;;;;;;;31.77;18.63;;;5.10;89.60;;;;;;5013364;28;20042;-70
2020/12/30 12:37:11;;;;;;;33.37;19.03;;;5.10;89.50;;;;;;5013290;28;20116;-70
2020/12/30 12:39:39;;;;;;;32.20;18.37;;;5.00;89.60;;;;;;5013648;28;20069;-70
2020/12/30 12:42:05;;;;;;;31.23;18.07;;;5.00;90.20;;;;;;5011723;28;20129;-70